Time;durP1;ratioP1;P1;durP2;ratioP2;P2;SDS_P1;SDS_P2;PMS_P1;PMS_P2;Temp;Humidity;BMP_temperature;BMP_pressure;BME280_temperature;BME280_humidity;BME280_pressure;Samples;Min_cycle;Max_cycle;Signal;HPM_P1;HPM_P2
2022/10/17 00:00:18;;;;;;;12.82;4.00;;;;;;;;;;5151404;27;20053;-71
2022/10/17 00:02:44;;;;;;;11.40;3.80;;;;;;;;;;5144088;27;20042;-72
2022/10/17 00:05:11;;;;;;;12.20;4.05;;;;;;;;;;5115824;27;20042;-71
2022/10/17 00:07:37;;;;;;;13.77;4.07;;;;;;;;;;5133331;27;20051;-72
2022/10/17 00:10:04;;;;;;;15.45;3.97;;;;;;;;;;5140428;27;20508;-71
2022/10/17 00:12:30;;;;;;;14.40;4.47;;;;;;;;;;5147200;27;20081;-71
2022/10/17 00:14:56;;;;;;;10.63;4.10;;;;;;;;;;5116674;27;20046;-72
2022/10/17 00:17:22;;;;;;;13.27;4.32;;;;;;;;;;5136253;27;20055;-72
2022/10/17 00:19:48;;;;;;;12.65;4.30;;;;;;;;;;5139378;27;21173;-71
2022/10/17 00:22:14;;;;;;;15.30;4.50;;;;;;;;;;5138747;27;20497;-71
2022/10/17 00:24:40;;;;;;;12.23;4.28;;;;;;;;;;5136835;27;20059;-72
2022/10/17 00:27:06;;;;;;;12.95;4.55;;;;;;;;;;5139588;27;20042;-71
2022/10/17 00:29:32;;;;;;;13.02;4.38;;;;;;;;;;5137609;27;20043;-71
2022/10/17 00:31:58;;;;;;;11.45;4.13;;;;;;;;;;5137076;27;20045;-71
2022/10/17 00:34:25;;;;;;;11.70;4.28;;;;;;;;;;5137212;27;20449;-71
2022/10/17 00:36:51;;;;;;;8.95;4.40;;;;;;;;;;5140269;27;20031;-71
2022/10/17 00:39:17;;;;;;;10.88;4.78;;;;;;;;;;5136945;27;20404;-71
2022/10/17 00:41:43;;;;;;;12.52;5.05;;;;;;;;;;5135671;27;20034;-71
2022/10/17 00:44:28;;;;;;;10.43;4.47;;;;;;;;;;5134778;27;20043;-71
2022/10/17 00:46:54;;;;;;;14.07;5.28;;;;;;;;;;5136881;27;20442;-72
2022/10/17 00:49:20;;;;;;;12.95;5.60;;;;;;;;;;5139299;27;20050;-71
2022/10/17 00:51:49;;;;;;;11.63;5.43;;;;;;;;;;5151506;27;20095;-71
2022/10/17 00:54:16;;;;;;;17.55;5.55;;;;;;;;;;5149504;27;20046;-71
2022/10/17 00:56:43;;;;;;;12.07;5.18;;;;;;;;;;5150680;27;20102;-72
2022/10/17 00:59:10;;;;;;;15.63;5.75;;;;;;;;;;5137096;27;20038;-71
2022/10/17 01:01:36;;;;;;;10.32;5.07;;;;;;;;;;5117253;27;20049;-71
2022/10/17 01:04:02;;;;;;;13.32;5.18;;;;;;;;;;5146367;27;20142;-71
2022/10/17 01:06:28;;;;;;;15.20;5.97;;;;;;;;;;5135788;27;20042;-71
2022/10/17 01:08:55;;;;;;;12.32;6.15;;;;;;;;;;5135835;27;20044;-72
2022/10/17 01:11:21;;;;;;;11.98;5.13;;;;;;;;;;5118182;27;20066;-71
2022/10/17 01:14:07;;;;;;;11.57;5.43;;;;;;;;;;5144655;27;20034;-72
2022/10/17 01:17:05;;;;;;;14.23;5.53;;;;;;;;;;5125093;27;20058;-72
2022/10/17 01:19:50;;;;;;;13.50;5.55;;;;;;;;;;5079306;28;20049;-72
2022/10/17 01:22:16;;;;;;;14.98;5.88;;;;;;;;;;5080240;28;20560;-72
2022/10/17 01:24:56;;;;;;;13.20;5.88;;;;;;;;;;5092273;28;20044;-72
2022/10/17 01:27:22;;;;;;;15.38;5.70;;;;;;;;;;5093235;28;20075;-71
2022/10/17 01:30:04;;;;;;;11.15;5.95;;;;;;;;;;5091593;28;20052;-71
2022/10/17 01:32:47;;;;;;;8.73;5.53;;;;;;;;;;5089385;28;20123;-72
2022/10/17 01:35:16;;;;;;;11.23;5.40;;;;;;;;;;5087796;28;20055;-71
2022/10/17 01:37:46;;;;;;;12.57;6.18;;;;;;;;;;5092084;28;20051;-71
2022/10/17 01:40:23;;;;;;;11.05;6.22;;;;;;;;;;5092669;28;20044;-71
2022/10/17 01:42:55;;;;;;;11.77;6.00;;;;;;;;;;5087666;28;20434;-71
2022/10/17 01:45:24;;;;;;;11.82;6.43;;;;;;;;;;5091756;28;20115;-71
2022/10/17 01:47:51;;;;;;;11.77;6.57;;;;;;;;;;5090751;28;20552;-72
2022/10/17 01:50:19;;;;;;;10.35;6.63;;;;;;;;;;5088340;28;20048;-71
2022/10/17 01:52:49;;;;;;;11.63;6.97;;;;;;;;;;5085539;28;20047;-72
2022/10/17 01:55:18;;;;;;;13.80;7.35;;;;;;;;;;5123951;27;20051;-71
2022/10/17 01:57:52;;;;;;;13.80;6.75;;;;;;;;;;5152051;27;20046;-72
2022/10/17 02:00:20;;;;;;;12.10;6.97;;;;;;;;;;5137447;27;20039;-72
2022/10/17 02:02:47;;;;;;;12.38;6.68;;;;;;;;;;5145717;27;20115;-71
2022/10/17 02:05:15;;;;;;;11.57;7.13;;;;;;;;;;5137665;27;20043;-72
2022/10/17 02:07:41;;;;;;;11.25;6.90;;;;;;;;;;5155858;27;20050;-71
2022/10/17 02:10:12;;;;;;;14.25;7.22;;;;;;;;;;5152828;27;20514;-71
2022/10/17 02:12:44;;;;;;;14.85;7.03;;;;;;;;;;5147371;27;20047;-72
2022/10/17 02:15:19;;;;;;;11.75;7.45;;;;;;;;;;5143169;27;20066;-72
2022/10/17 02:17:45;;;;;;;12.10;8.27;;;;;;;;;;5142013;27;20059;-71
2022/10/17 02:20:18;;;;;;;13.95;7.82;;;;;;;;;;5150020;27;20053;-72
2022/10/17 02:22:50;;;;;;;12.88;7.75;;;;;;;;;;5135594;27;20091;-71
2022/10/17 02:25:22;;;;;;;13.98;7.90;;;;;;;;;;5143094;27;20075;-72
2022/10/17 02:27:53;;;;;;;10.68;7.38;;;;;;;;;;5150510;27;20050;-72
2022/10/17 02:30:25;;;;;;;12.30;7.97;;;;;;;;;;5152916;27;20083;-71
2022/10/17 02:32:56;;;;;;;13.13;7.68;;;;;;;;;;5141468;27;20046;-71
2022/10/17 02:35:22;;;;;;;;;;;;;;;;;;5145425;27;20052;-71
2022/10/17 02:37:49;;;;;;;9.52;7.43;;;;;;;;;;5149017;27;19970;-71
2022/10/17 02:40:17;;;;;;;12.38;7.22;;;;;;;;;;5136982;27;20039;-72
2022/10/17 02:42:44;;;;;;;10.95;8.30;;;;;;;;;;5148624;27;20047;-72
2022/10/17 02:45:11;;;;;;;11.95;8.13;;;;;;;;;;5150518;27;20450;-71
2022/10/17 02:47:42;;;;;;;12.18;8.32;;;;;;;;;;5149645;27;20072;-71
2022/10/17 02:50:09;;;;;;;12.20;8.20;;;;;;;;;;5136028;27;20072;-71
2022/10/17 02:52:55;;;;;;;12.40;8.60;;;;;;;;;;5152577;27;20045;-71
2022/10/17 02:55:35;;;;;;;11.90;9.00;;;;;;;;;;5156432;27;20404;-71
2022/10/17 02:58:18;;;;;;;13.93;9.88;;;;;;;;;;5145557;27;20054;-71
2022/10/17 03:00:44;;;;;;;14.07;9.23;;;;;;;;;;5151313;27;20438;-71
2022/10/17 03:03:19;;;;;;;15.10;10.20;;;;;;;;;;5133206;27;20046;-71
2022/10/17 03:05:45;;;;;;;14.50;10.80;;;;;;;;;;5135913;27;20404;-71
2022/10/17 03:08:11;;;;;;;14.65;10.10;;;;;;;;;;5142928;27;20047;-72
2022/10/17 03:10:37;;;;;;;14.38;10.70;;;;;;;;;;5136231;27;20036;-71
2022/10/17 03:13:03;;;;;;;13.65;10.30;;;;;;;;;;5146108;27;20039;-71
2022/10/17 03:15:29;;;;;;;14.93;10.30;;;;;;;;;;5134611;27;20043;-72
2022/10/17 03:17:55;;;;;;;16.17;10.52;;;;;;;;;;5138420;27;20054;-72
2022/10/17 03:20:21;;;;;;;14.02;10.80;;;;;;;;;;5146232;27;20057;-71
2022/10/17 03:22:47;;;;;;;16.55;11.65;;;;;;;;;;5136445;27;20073;-71
2022/10/17 03:25:13;;;;;;;15.52;11.48;;;;;;;;;;5154890;27;20095;-71
2022/10/17 03:27:39;;;;;;;15.70;11.10;;;;;;;;;;5137966;27;20050;-71
2022/10/17 03:30:06;;;;;;;12.73;10.52;;;;;;;;;;5151344;27;20047;-71
2022/10/17 03:32:33;;;;;;;15.90;11.07;;;;;;;;;;5144646;27;20050;-71
2022/10/17 03:34:59;;;;;;;16.58;11.25;;;;;;;;;;5116419;27;20047;-71
2022/10/17 03:37:25;;;;;;;13.60;11.50;;;;;;;;;;5141714;27;20039;-71
2022/10/17 03:39:51;;;;;;;14.05;11.52;;;;;;;;;;5139462;27;20043;-71
2022/10/17 03:42:17;;;;;;;13.00;11.70;;;;;;;;;;5150687;27;20035;-71
2022/10/17 03:44:43;;;;;;;16.55;12.95;;;;;;;;;;5144061;27;20039;-72
2022/10/17 03:47:09;;;;;;;14.82;11.93;;;;;;;;;;5136825;27;20408;-71
2022/10/17 03:49:35;;;;;;;18.48;12.77;;;;;;;;;;5138275;27;20489;-71
2022/10/17 03:52:01;;;;;;;18.23;12.73;;;;;;;;;;5134206;27;20167;-71
2022/10/17 03:54:27;;;;;;;16.67;12.95;;;;;;;;;;5149715;27;20535;-71
2022/10/17 03:56:53;;;;;;;15.60;12.25;;;;;;;;;;5143708;27;20035;-71
2022/10/17 03:59:19;;;;;;;20.23;13.75;;;;;;;;;;5121273;27;20053;-71
2022/10/17 04:01:45;;;;;;;14.45;12.10;;;;;;;;;;5115650;27;20565;-71
2022/10/17 04:04:12;;;;;;;17.35;14.10;;;;;;;;;;5133950;27;20122;-71
2022/10/17 04:06:38;;;;;;;18.40;13.40;;;;;;;;;;5142107;27;20070;-71
2022/10/17 04:09:05;;;;;;;16.95;14.02;;;;;;;;;;5146925;27;20038;-71
2022/10/17 04:11:31;;;;;;;19.25;13.63;;;;;;;;;;5123708;27;20401;-71
2022/10/17 04:13:58;;;;;;;15.98;13.65;;;;;;;;;;5141134;27;20047;-72
2022/10/17 04:16:25;;;;;;;18.63;14.98;;;;;;;;;;5141946;27;20634;-71
2022/10/17 04:18:54;;;;;;;16.17;14.48;;;;;;;;;;5147314;27;20401;-71
2022/10/17 04:21:21;;;;;;;18.20;15.18;;;;;;;;;;5146454;27;20654;-71
2022/10/17 04:23:47;;;;;;;18.40;15.75;;;;;;;;;;5133301;27;20035;-72
2022/10/17 04:26:13;;;;;;;21.35;16.35;;;;;;;;;;5135667;27;20496;-72
2022/10/17 04:28:39;;;;;;;21.92;18.20;;;;;;;;;;5147326;27;20388;-71
2022/10/17 04:31:11;;;;;;;21.35;17.50;;;;;;;;;;5136317;27;20042;-71
2022/10/17 04:33:37;;;;;;;19.42;17.40;;;;;;;;;;5149313;27;20489;-71
2022/10/17 04:36:07;;;;;;;21.83;17.88;;;;;;;;;;5136105;27;20042;-71
2022/10/17 04:38:33;;;;;;;21.63;18.30;;;;;;;;;;5144174;27;20412;-71
2022/10/17 04:41:04;;;;;;;23.58;17.88;;;;;;;;;;5144416;27;20556;-72
2022/10/17 04:43:34;;;;;;;22.77;17.33;;;;;;;;;;5136244;27;20079;-71
2022/10/17 04:46:01;;;;;;;25.63;17.75;;;;;;;;;;5149291;27;20039;-71
2022/10/17 04:48:27;;;;;;;23.20;19.13;;;;;;;;;;5131607;27;20051;-71
2022/10/17 04:51:04;;;;;;;21.42;17.92;;;;;;;;;;5135021;27;20400;-71
2022/10/17 04:53:30;;;;;;;23.65;18.50;;;;;;;;;;5151536;27;20484;-71
2022/10/17 04:55:56;;;;;;;23.45;19.08;;;;;;;;;;5148590;27;20095;-71
2022/10/17 04:58:22;;;;;;;21.67;18.80;;;;;;;;;;5134939;27;20042;-71
2022/10/17 05:00:49;;;;;;;21.63;18.30;;;;;;;;;;5135896;27;20043;-72
2022/10/17 05:03:15;;;;;;;25.20;19.65;;;;;;;;;;5149611;27;20050;-71
2022/10/17 05:05:41;;;;;;;22.67;17.90;;;;;;;;;;5148762;27;20507;-71
2022/10/17 05:08:08;;;;;;;21.17;18.13;;;;;;;;;;5141582;27;20508;-71
2022/10/17 05:10:39;;;;;;;22.88;18.15;;;;;;;;;;5132778;27;20054;-71
2022/10/17 05:13:05;;;;;;;25.52;18.85;;;;;;;;;;5147957;27;20035;-71
2022/10/17 05:15:31;;;;;;;23.67;18.92;;;;;;;;;;5137211;27;20036;-71
2022/10/17 05:17:57;;;;;;;21.90;18.83;;;;;;;;;;5137066;27;20511;-71
2022/10/17 05:20:25;;;;;;;23.83;18.73;;;;;;;;;;5134327;27;20090;-71
2022/10/17 05:22:51;;;;;;;22.15;19.63;;;;;;;;;;5134128;27;20417;-71
2022/10/17 05:25:18;;;;;;;25.13;19.05;;;;;;;;;;5152938;27;20049;-71
2022/10/17 05:27:44;;;;;;;26.58;20.00;;;;;;;;;;5132577;27;20532;-71
2022/10/17 05:30:10;;;;;;;22.70;18.80;;;;;;;;;;5132788;27;20408;-71
2022/10/17 05:32:36;;;;;;;25.95;19.77;;;;;;;;;;5134408;27;20039;-71
2022/10/17 05:35:03;;;;;;;27.65;20.80;;;;;;;;;;5152763;27;20492;-71
2022/10/17 05:37:30;;;;;;;24.83;20.08;;;;;;;;;;5149380;27;20043;-71
2022/10/17 05:39:56;;;;;;;27.60;20.52;;;;;;;;;;5152214;27;20484;-71
2022/10/17 05:42:22;;;;;;;25.63;20.13;;;;;;;;;;5143680;27;20040;-71
2022/10/17 05:44:48;;;;;;;27.30;20.58;;;;;;;;;;5146055;27;20074;-71
2022/10/17 05:47:14;;;;;;;27.30;20.83;;;;;;;;;;5138108;27;20072;-71
2022/10/17 05:49:40;;;;;;;29.67;21.23;;;;;;;;;;5131792;27;20409;-71
2022/10/17 05:52:06;;;;;;;28.85;21.50;;;;;;;;;;5141430;27;20055;-71
2022/10/17 05:54:33;;;;;;;26.15;21.02;;;;;;;;;;5148173;27;20046;-71
2022/10/17 05:56:59;;;;;;;25.42;20.40;;;;;;;;;;5149528;27;20031;-71
2022/10/17 05:59:25;;;;;;;30.60;20.70;;;;;;;;;;5135709;27;20043;-71
2022/10/17 06:01:52;;;;;;;25.75;20.38;;;;;;;;;;5139413;27;20058;-71
2022/10/17 06:04:18;;;;;;;27.15;21.42;;;;;;;;;;5141556;27;20083;-71
2022/10/17 06:06:44;;;;;;;25.83;20.75;;;;;;;;;;5136484;27;20078;-71
2022/10/17 06:09:10;;;;;;;26.23;21.13;;;;;;;;;;5135702;27;20074;-71
2022/10/17 06:11:36;;;;;;;25.30;22.17;;;;;;;;;;5133440;27;20043;-71
2022/10/17 06:14:02;;;;;;;30.00;22.65;;;;;;;;;;5146127;27;20515;-71
2022/10/17 06:16:28;;;;;;;28.20;21.85;;;;;;;;;;5135841;27;20144;-71
2022/10/17 06:18:54;;;;;;;27.52;21.05;;;;;;;;;;5136433;27;20400;-71
2022/10/17 06:21:22;;;;;;;26.42;21.55;;;;;;;;;;5142229;27;20122;-72
2022/10/17 06:23:48;;;;;;;28.70;22.08;;;;;;;;;;5137842;27;20103;-71
2022/10/17 06:26:14;;;;;;;27.45;21.77;;;;;;;;;;5144595;27;20072;-71
2022/10/17 06:28:40;;;;;;;28.83;22.38;;;;;;;;;;5151269;27;20037;-71
2022/10/17 06:31:10;;;;;;;25.98;21.35;;;;;;;;;;5140096;27;20051;-71
2022/10/17 06:33:37;;;;;;;29.90;22.25;;;;;;;;;;5135190;27;20404;-71
2022/10/17 06:36:03;;;;;;;24.38;21.67;;;;;;;;;;5136046;27;20126;-71
2022/10/17 06:38:29;;;;;;;26.05;21.95;;;;;;;;;;5156058;27;20051;-71
2022/10/17 06:41:02;;;;;;;25.90;21.88;;;;;;;;;;5142172;27;20078;-72
2022/10/17 06:43:28;;;;;;;25.27;21.52;;;;;;;;;;5137646;27;20492;-71
2022/10/17 06:45:54;;;;;;;27.52;21.58;;;;;;;;;;5139628;27;20043;-71
2022/10/17 06:48:20;;;;;;;23.13;20.50;;;;;;;;;;5137286;27;20047;-72
2022/10/17 06:50:46;;;;;;;26.35;21.15;;;;;;;;;;5133732;27;20044;-71
2022/10/17 06:53:12;;;;;;;25.30;20.85;;;;;;;;;;5134368;27;20070;-71
2022/10/17 06:55:38;;;;;;;26.15;21.52;;;;;;;;;;5135951;27;20043;-71
2022/10/17 06:58:04;;;;;;;24.05;20.95;;;;;;;;;;5137211;27;20043;-71
2022/10/17 07:00:30;;;;;;;28.02;21.50;;;;;;;;;;5134353;27;20120;-71
2022/10/17 07:02:56;;;;;;;24.73;20.58;;;;;;;;;;5140286;27;20043;-71
2022/10/17 07:05:22;;;;;;;27.05;20.77;;;;;;;;;;5132353;27;20074;-75
2022/10/17 07:07:48;;;;;;;24.25;20.40;;;;;;;;;;5134184;27;20043;-71
2022/10/17 07:10:14;;;;;;;25.88;20.17;;;;;;;;;;5146241;27;20043;-71
2022/10/17 07:12:40;;;;;;;23.67;19.00;;;;;;;;;;5136545;27;20516;-71
2022/10/17 07:15:06;;;;;;;21.13;18.73;;;;;;;;;;5132002;27;20142;-70
2022/10/17 07:17:33;;;;;;;22.85;18.98;;;;;;;;;;5135914;27;20330;-71
2022/10/17 07:19:59;;;;;;;21.90;17.95;;;;;;;;;;5136985;27;20047;-71
2022/10/17 07:22:25;;;;;;;22.63;19.15;;;;;;;;;;5133409;27;20055;-71
2022/10/17 07:24:51;;;;;;;21.52;18.55;;;;;;;;;;5137369;27;20058;-71
2022/10/17 07:27:17;;;;;;;21.17;18.05;;;;;;;;;;5136225;27;20046;-70
2022/10/17 07:29:43;;;;;;;24.52;17.33;;;;;;;;;;5136454;27;20345;-71
2022/10/17 07:32:09;;;;;;;21.67;17.20;;;;;;;;;;5136960;27;20115;-70
2022/10/17 07:34:35;;;;;;;18.88;16.42;;;;;;;;;;5139466;27;20041;-70
2022/10/17 07:37:01;;;;;;;21.75;15.75;;;;;;;;;;5133885;27;20123;-71
2022/10/17 07:39:28;;;;;;;21.48;15.57;;;;;;;;;;5135613;27;20050;-71
2022/10/17 07:41:54;;;;;;;23.17;15.60;;;;;;;;;;5133079;27;20050;-71
2022/10/17 07:44:20;;;;;;;18.85;14.23;;;;;;;;;;5133042;27;20437;-70
2022/10/17 07:46:46;;;;;;;17.10;13.48;;;;;;;;;;5134787;27;20038;-75
2022/10/17 07:49:12;;;;;;;16.20;14.02;;;;;;;;;;5133848;27;20051;-71
2022/10/17 07:51:38;;;;;;;20.40;13.75;;;;;;;;;;5135773;27;20043;-72
2022/10/17 07:54:05;;;;;;;17.30;13.80;;;;;;;;;;5141380;27;20716;-73
2022/10/17 07:56:32;;;;;;;19.27;13.52;;;;;;;;;;5100940;27;20037;-75
2022/10/17 07:58:58;;;;;;;17.67;13.05;;;;;;;;;;5141722;27;20043;-73
2022/10/17 08:01:24;;;;;;;16.23;12.70;;;;;;;;;;5137494;27;20107;-74
2022/10/17 08:03:50;;;;;;;14.57;11.52;;;;;;;;;;5150355;27;20046;-75
2022/10/17 08:06:17;;;;;;;13.77;11.45;;;;;;;;;;5135747;27;20043;-75
2022/10/17 08:08:43;;;;;;;16.38;10.95;;;;;;;;;;5149857;27;20042;-74
2022/10/17 08:11:11;;;;;;;13.68;10.57;;;;;;;;;;5133675;27;20095;-74
2022/10/17 08:13:37;;;;;;;14.07;10.02;;;;;;;;;;5132363;27;20047;-75
2022/10/17 08:16:06;;;;;;;14.25;10.63;;;;;;;;;;5139775;27;20047;-72
2022/10/17 08:18:32;;;;;;;11.57;9.32;;;;;;;;;;5135792;27;20078;-77
2022/10/17 08:21:02;;;;;;;16.67;10.23;;;;;;;;;;5118732;27;20583;-74
2022/10/17 08:23:28;;;;;;;14.93;9.82;;;;;;;;;;5137054;27;20041;-74
2022/10/17 08:25:54;;;;;;;15.52;8.85;;;;;;;;;;5116108;27;20067;-77
2022/10/17 08:28:20;;;;;;;13.40;9.38;;;;;;;;;;5133247;27;20043;-72
2022/10/17 08:30:46;;;;;;;12.23;9.23;;;;;;;;;;5119984;27;20039;-71
2022/10/17 08:33:12;;;;;;;15.25;8.77;;;;;;;;;;5142993;27;20035;-71
2022/10/17 08:35:38;;;;;;;12.02;8.90;;;;;;;;;;5143275;27;20133;-71
2022/10/17 08:38:06;;;;;;;14.65;9.05;;;;;;;;;;5135596;27;20104;-72
2022/10/17 08:40:32;;;;;;;13.35;9.20;;;;;;;;;;5136171;27;20039;-71
2022/10/17 08:43:11;;;;;;;13.40;8.93;;;;;;;;;;5132985;27;20053;-72
2022/10/17 08:46:06;;;;;;;13.40;10.10;;;;;;;;;;5140208;27;20369;-71
2022/10/17 08:48:33;;;;;;;11.57;8.65;;;;;;;;;;5111183;28;20150;-72
2022/10/17 08:51:06;;;;;;;18.02;9.10;;;;;;;;;;5145448;27;20042;-71
2022/10/17 08:53:38;;;;;;;17.65;9.57;;;;;;;;;;5142674;27;20104;-71
2022/10/17 08:56:25;;;;;;;14.63;9.52;;;;;;;;;;5133762;27;20063;-73
2022/10/17 08:58:51;;;;;;;14.15;8.63;;;;;;;;;;5151876;27;20035;-72
2022/10/17 09:01:26;;;;;;;14.75;9.38;;;;;;;;;;5153493;27;20054;-71
2022/10/17 09:04:11;;;;;;;13.82;8.63;;;;;;;;;;5151170;27;20415;-71
2022/10/17 09:06:38;;;;;;;12.65;8.95;;;;;;;;;;5136319;27;20043;-71
2022/10/17 09:09:22;;;;;;;14.07;8.68;;;;;;;;;;5138293;27;20035;-72
2022/10/17 09:11:54;;;;;;;13.57;8.65;;;;;;;;;;5143395;27;20038;-71
2022/10/17 09:14:20;;;;;;;15.15;9.40;;;;;;;;;;5142728;27;20137;-71
2022/10/17 09:16:53;;;;;;;14.35;9.00;;;;;;;;;;5145402;27;20051;-71
2022/10/17 09:19:21;;;;;;;11.52;8.63;;;;;;;;;;5114160;28;20043;-76
2022/10/17 09:22:02;;;;;;;13.55;9.90;;;;;;;;;;5132173;27;20059;-73
2022/10/17 09:24:47;;;;;;;12.30;9.20;;;;;;;;;;5137620;27;20054;-70
2022/10/17 09:27:19;;;;;;;15.32;8.57;;;;;;;;;;5113751;27;20055;-75
2022/10/17 09:29:47;;;;;;;12.77;9.68;;;;;;;;;;5136575;27;20050;-72
2022/10/17 09:32:17;;;;;;;11.30;9.27;;;;;;;;;;5137544;27;20405;-72
2022/10/17 09:34:43;;;;;;;11.75;9.20;;;;;;;;;;5138813;27;20035;-72
2022/10/17 09:37:14;;;;;;;12.63;8.80;;;;;;;;;;5126733;27;20036;-72
2022/10/17 09:39:40;;;;;;;11.38;8.77;;;;;;;;;;5135882;27;20039;-71
2022/10/17 09:42:09;;;;;;;13.75;9.30;;;;;;;;;;5135858;27;20043;-73
2022/10/17 09:44:40;;;;;;;13.93;9.27;;;;;;;;;;5153341;27;20042;-76
2022/10/17 09:47:25;;;;;;;14.10;8.30;;;;;;;;;;5151297;27;20416;-72
2022/10/17 09:49:52;;;;;;;15.60;9.20;;;;;;;;;;5154833;27;20051;-73
2022/10/17 09:52:18;;;;;;;13.88;9.57;;;;;;;;;;5146993;27;20104;-73
2022/10/17 09:55:02;;;;;;;14.25;9.60;;;;;;;;;;5123967;27;20123;-71
2022/10/17 09:57:28;;;;;;;13.05;9.63;;;;;;;;;;5149876;27;20409;-71
2022/10/17 10:00:02;;;;;;;12.90;9.88;;;;;;;;;;5141316;27;20081;-71
2022/10/17 10:02:29;;;;;;;15.15;9.30;;;;;;;;;;5138123;27;20090;-72
2022/10/17 10:04:59;;;;;;;12.32;8.82;;;;;;;;;;5147525;27;20074;-76
2022/10/17 10:07:26;;;;;;;13.85;8.88;;;;;;;;;;5117057;27;20509;-73
2022/10/17 10:09:52;;;;;;;13.50;9.48;;;;;;;;;;5135843;27;20100;-74
2022/10/17 10:12:20;;;;;;;16.27;9.50;;;;;;;;;;5145814;27;20369;-70
2022/10/17 10:14:47;;;;;;;13.00;9.70;;;;;;;;;;5141911;27;20031;-71
2022/10/17 10:17:33;;;;;;;13.75;9.50;;;;;;;;;;5147477;27;20051;-70
2022/10/17 10:20:00;;;;;;;15.48;9.75;;;;;;;;;;5146117;27;20047;-71
2022/10/17 10:22:26;;;;;;;16.95;10.35;;;;;;;;;;5145149;27;20038;-70
2022/10/17 10:25:06;;;;;;;13.73;9.98;;;;;;;;;;5137596;27;20491;-70
2022/10/17 10:27:33;;;;;;;16.00;10.38;;;;;;;;;;5143249;27;20054;-70
2022/10/17 10:29:59;;;;;;;16.40;10.88;;;;;;;;;;5156407;27;20058;-70
2022/10/17 10:32:25;;;;;;;16.70;11.25;;;;;;;;;;5156083;27;20149;-70
2022/10/17 10:34:53;;;;;;;18.55;11.90;;;;;;;;;;5147474;27;20035;-70
2022/10/17 10:37:26;;;;;;;17.02;10.48;;;;;;;;;;5123689;27;20054;-70
2022/10/17 10:39:57;;;;;;;17.55;12.38;;;;;;;;;;5137325;27;20459;-75
2022/10/17 10:42:23;;;;;;;15.52;11.68;;;;;;;;;;5121571;27;20039;-73
2022/10/17 10:44:49;;;;;;;17.38;11.35;;;;;;;;;;5145695;27;20047;-72
2022/10/17 10:47:26;;;;;;;13.55;11.25;;;;;;;;;;5147998;27;20050;-70
2022/10/17 10:50:06;;;;;;;14.50;12.38;;;;;;;;;;5153379;27;20070;-71
2022/10/17 10:52:35;;;;;;;19.80;12.20;;;;;;;;;;5142785;27;20071;-71
2022/10/17 10:55:17;;;;;;;13.15;11.68;;;;;;;;;;5143304;27;20106;-73
2022/10/17 10:57:44;;;;;;;17.08;12.15;;;;;;;;;;5148142;27;20445;-74
2022/10/17 11:00:15;;;;;;;19.98;13.48;;;;;;;;;;5149840;27;21224;-76
2022/10/17 11:02:57;;;;;;;16.92;13.25;;;;;;;;;;5136283;27;20054;-76
2022/10/17 11:05:40;;;;;;;20.00;13.80;;;;;;;;;;5143109;27;20050;-73
2022/10/17 11:08:06;;;;;;;18.48;13.65;;;;;;;;;;5134838;27;20039;-73
2022/10/17 11:10:32;;;;;;;19.20;14.25;;;;;;;;;;5134820;27;20091;-74
2022/10/17 11:13:05;;;;;;;18.73;14.85;;;;;;;;;;5135191;27;20484;-71
2022/10/17 11:15:45;;;;;;;19.73;15.25;;;;;;;;;;5146025;27;20492;-71
2022/10/17 11:18:15;;;;;;;18.75;15.60;;;;;;;;;;5134505;27;20050;-70
2022/10/17 11:21:02;;;;;;;19.90;16.20;;;;;;;;;;5116252;27;20430;-74
2022/10/17 11:23:28;;;;;;;23.80;15.25;;;;;;;;;;5133671;27;20051;-74
2022/10/17 11:25:56;;;;;;;20.58;15.52;;;;;;;;;;5146656;27;20070;-73
2022/10/17 11:28:23;;;;;;;20.15;17.10;;;;;;;;;;5137475;27;20070;-74
2022/10/17 11:30:51;;;;;;;18.60;14.32;;;;;;;;;;5135232;27;20050;-74
2022/10/17 11:33:21;;;;;;;19.27;14.48;;;;;;;;;;5134916;27;20409;-70
2022/10/17 11:35:49;;;;;;;20.73;15.15;;;;;;;;;;5150479;27;20039;-70
2022/10/17 11:38:21;;;;;;;20.27;14.90;;;;;;;;;;5137323;27;20100;-70
2022/10/17 11:40:49;;;;;;;24.38;16.98;;;;;;;;;;5134113;27;20159;-70
2022/10/17 11:43:15;;;;;;;22.15;14.15;;;;;;;;;;5132912;27;20043;-71
2022/10/17 11:45:51;;;;;;;18.23;14.68;;;;;;;;;;5104347;27;20050;-70
2022/10/17 11:48:21;;;;;;;16.85;13.13;;;;;;;;;;5140497;27;20372;-70
2022/10/17 11:50:53;;;;;;;18.73;12.80;;;;;;;;;;5137161;27;20035;-71
2022/10/17 11:53:21;;;;;;;15.20;13.43;;;;;;;;;;5150231;27;20412;-71
2022/10/17 11:55:48;;;;;;;14.65;11.75;;;;;;;;;;5148534;27;20034;-70
2022/10/17 11:58:17;;;;;;;15.10;11.70;;;;;;;;;;5133633;27;20047;-71
2022/10/17 12:00:43;;;;;;;14.38;11.80;;;;;;;;;;5139457;27;20077;-71
2022/10/17 12:03:28;;;;;;;15.93;11.52;;;;;;;;;;5139930;27;20107;-70
2022/10/17 12:06:00;;;;;;;14.43;11.23;;;;;;;;;;5136808;27;20062;-70
2022/10/17 12:08:37;;;;;;;12.48;10.80;;;;;;;;;;5144683;27;20057;-71
2022/10/17 12:11:06;;;;;;;13.48;10.18;;;;;;;;;;5122904;27;20103;-71
2022/10/17 12:13:34;;;;;;;13.50;10.73;;;;;;;;;;5133963;27;20046;-70
2022/10/17 12:16:18;;;;;;;14.48;9.95;;;;;;;;;;5144101;27;20054;-70
2022/10/17 12:18:49;;;;;;;12.40;10.40;;;;;;;;;;5139726;27;20051;-71
2022/10/17 12:21:15;;;;;;;15.80;10.53;;;;;;;;;;5123022;27;20047;-71
2022/10/17 12:23:51;;;;;;;13.48;10.25;;;;;;;;;;5137368;27;20386;-71
2022/10/17 12:26:25;;;;;;;13.80;10.63;;;;;;;;;;5133260;27;20055;-71
2022/10/17 12:28:51;;;;;;;12.05;9.48;;;;;;;;;;5149115;27;20446;-71
2022/10/17 12:31:18;;;;;;;13.27;10.80;;;;;;;;;;5154025;27;20053;-70
2022/10/17 12:33:49;;;;;;;13.50;9.70;;;;;;;;;;5136694;27;20051;-71
2022/10/17 12:36:19;;;;;;;10.77;9.67;;;;;;;;;;5114866;27;20055;-71
2022/10/17 12:39:16;;;;;;;11.90;9.30;;;;;;;;;;5149018;27;20046;-71
2022/10/17 12:41:43;;;;;;;13.85;9.38;;;;;;;;;;5152985;27;20085;-70
2022/10/17 12:44:09;;;;;;;12.65;8.55;;;;;;;;;;5135094;27;20054;-71
2022/10/17 12:46:50;;;;;;;11.23;8.43;;;;;;;;;;5133447;27;20039;-71
2022/10/17 12:49:34;;;;;;;9.90;7.85;;;;;;;;;;5152027;27;20050;-71
2022/10/17 12:52:09;;;;;;;10.18;8.38;;;;;;;;;;5144061;27;20031;-70
2022/10/17 12:54:40;;;;;;;10.88;8.38;;;;;;;;;;5132956;28;20054;-71
2022/10/17 12:57:06;;;;;;;;;;;;;;;;;;5134912;27;20134;-71
2022/10/17 12:59:32;;;;;;;10.82;7.90;;;;;;;;;;5141548;27;20043;-71
2022/10/17 13:02:00;;;;;;;11.27;7.55;;;;;;;;;;5149851;27;20055;-71
2022/10/17 13:04:27;;;;;;;9.98;7.07;;;;;;;;;;5156309;27;20038;-70
2022/10/17 13:06:54;;;;;;;11.00;7.47;;;;;;;;;;5154800;27;20039;-70
2022/10/17 13:09:30;;;;;;;12.23;7.20;;;;;;;;;;5118367;27;20047;-71
2022/10/17 13:11:59;;;;;;;10.32;7.10;;;;;;;;;;5136561;27;20047;-71
2022/10/17 13:14:25;;;;;;;12.82;7.47;;;;;;;;;;5136698;27;20043;-70
2022/10/17 13:16:56;;;;;;;11.18;7.10;;;;;;;;;;5136468;27;20050;-71
2022/10/17 13:19:26;;;;;;;9.27;7.22;;;;;;;;;;5153377;27;20055;-72
2022/10/17 13:21:59;;;;;;;8.02;6.45;;;;;;;;;;5156101;27;20038;-72
2022/10/17 13:24:30;;;;;;;8.60;7.03;;;;;;;;;;5157659;27;20070;-72
2022/10/17 13:26:56;;;;;;;10.30;6.28;;;;;;;;;;5154178;27;20031;-72
2022/10/17 13:29:24;;;;;;;10.02;6.50;;;;;;;;;;5144887;27;20503;-71
2022/10/17 13:31:54;;;;;;;8.40;7.20;;;;;;;;;;5143117;27;20058;-71
2022/10/17 13:34:22;;;;;;;9.40;6.82;;;;;;;;;;5135525;27;20051;-71
2022/10/17 13:36:50;;;;;;;11.05;7.00;;;;;;;;;;5150052;27;20400;-71
2022/10/17 13:39:18;;;;;;;7.95;5.88;;;;;;;;;;5130136;27;20050;-70
2022/10/17 13:41:44;;;;;;;10.32;6.85;;;;;;;;;;5149203;27;20111;-71
2022/10/17 13:44:16;;;;;;;8.25;6.18;;;;;;;;;;5156950;27;20039;-71
2022/10/17 13:46:42;;;;;;;10.85;6.50;;;;;;;;;;5150279;27;20047;-70
2022/10/17 13:49:11;;;;;;;14.07;7.80;;;;;;;;;;5141029;27;20058;-70
2022/10/17 13:51:37;;;;;;;8.27;6.07;;;;;;;;;;5146027;27;20037;-70
2022/10/17 13:54:16;;;;;;;8.40;5.93;;;;;;;;;;5144270;27;20060;-70
2022/10/17 13:56:42;;;;;;;9.50;6.10;;;;;;;;;;5145395;27;20092;-70
2022/10/17 13:59:19;;;;;;;7.30;5.50;;;;;;;;;;5138605;27;20039;-70
2022/10/17 14:01:48;;;;;;;9.43;6.75;;;;;;;;;;5147304;27;20496;-70
2022/10/17 14:04:15;;;;;;;9.57;6.60;;;;;;;;;;5148432;27;20113;-70
2022/10/17 14:06:45;;;;;;;9.43;6.25;;;;;;;;;;5100428;27;20134;-70
2022/10/17 14:09:18;;;;;;;11.82;6.55;;;;;;;;;;5148370;27;20047;-71
2022/10/17 14:11:44;;;;;;;10.38;7.00;;;;;;;;;;5137162;27;20142;-70
2022/10/17 14:14:18;;;;;;;7.97;4.13;;;;;;;;;;5137271;27;20031;-70
2022/10/17 14:16:44;;;;;;;7.35;3.25;;;;;;;;;;5136331;27;20051;-70
2022/10/17 14:19:28;;;;;;;6.25;2.83;;;;;;;;;;5140276;27;20610;-70
2022/10/17 14:21:55;;;;;;;7.78;3.03;;;;;;;;;;5153954;27;20042;-70
2022/10/17 14:24:21;;;;;;;6.20;3.22;;;;;;;;;;5152205;27;20054;-70
2022/10/17 14:26:49;;;;;;;6.88;2.92;;;;;;;;;;5142307;27;20039;-70
2022/10/17 14:29:26;;;;;;;7.75;3.20;;;;;;;;;;5135311;27;20530;-71
2022/10/17 14:32:07;;;;;;;6.45;2.92;;;;;;;;;;5142219;27;20517;-70
2022/10/17 14:34:38;;;;;;;7.40;3.00;;;;;;;;;;5155702;27;20137;-70
2022/10/17 14:37:30;;;;;;;6.35;3.03;;;;;;;;;;5139795;27;20046;-70